createdAt,value
2022-11-20T00:00:28.256Z,0.00
2022-11-20T00:01:28.277Z,0.00
2022-11-20T00:02:28.237Z,0.00
2022-11-20T00:03:28.239Z,0.00
2022-11-20T00:04:28.232Z,0.00
2022-11-20T00:05:28.258Z,0.00
2022-11-20T00:06:28.194Z,0.00
2022-11-20T00:07:28.273Z,0.00
2022-11-20T00:08:28.775Z,0.00
2022-11-20T00:09:28.208Z,0.00
2022-11-20T00:10:28.220Z,0.00
2022-11-20T00:11:28.204Z,0.00
2022-11-20T00:12:28.292Z,0.00
2022-11-20T00:13:28.195Z,0.00
2022-11-20T00:14:28.211Z,0.00
2022-11-20T00:15:28.146Z,0.00
2022-11-20T00:16:28.184Z,0.00
2022-11-20T00:17:28.185Z,0.00
2022-11-20T00:18:28.146Z,0.00
2022-11-20T00:19:28.157Z,0.00
2022-11-20T00:20:28.181Z,0.00
2022-11-20T00:21:28.138Z,0.00
2022-11-20T00:22:28.314Z,0.00
2022-11-20T00:23:28.281Z,0.00
2022-11-20T00:24:28.132Z,0.00
2022-11-20T00:25:28.150Z,0.00
2022-11-20T00:26:28.109Z,0.00
2022-11-20T00:27:28.168Z,0.00
2022-11-20T00:28:28.135Z,0.00
2022-11-20T00:29:28.141Z,0.00
2022-11-20T00:30:29.107Z,0.00
2022-11-20T00:31:28.117Z,0.00
2022-11-20T00:32:28.088Z,0.00
2022-11-20T00:33:28.090Z,0.00
2022-11-20T00:34:28.110Z,0.00
2022-11-20T00:35:28.090Z,0.00
2022-11-20T00:36:28.070Z,0.00
2022-11-20T00:37:28.072Z,0.00
2022-11-20T00:38:28.095Z,0.00
2022-11-20T00:39:28.054Z,0.00
2022-11-20T00:40:28.229Z,0.00
2022-11-20T00:41:28.046Z,0.00
2022-11-20T00:42:28.062Z,0.00
2022-11-20T00:43:28.023Z,0.00
2022-11-20T00:44:28.069Z,0.00
2022-11-20T00:45:28.145Z,0.00
2022-11-20T00:46:28.011Z,0.00
2022-11-20T00:47:28.009Z,0.00
2022-11-20T00:48:27.986Z,0.00
2022-11-20T00:49:27.998Z,0.00
2022-11-20T00:50:28.026Z,0.00
2022-11-20T00:51:28.039Z,0.00
2022-11-20T00:52:27.980Z,0.00
2022-11-20T00:53:27.994Z,0.00
2022-11-20T00:54:27.980Z,0.00
2022-11-20T00:55:27.989Z,0.00
2022-11-20T00:56:28.072Z,0.00
2022-11-20T00:57:27.954Z,0.00
2022-11-20T00:58:27.967Z,0.00
2022-11-20T00:59:27.942Z,0.00
2022-11-20T01:00:27.978Z,0.00
2022-11-20T01:01:27.979Z,0.00
2022-11-20T01:02:27.959Z,0.00
2022-11-20T01:03:27.917Z,0.00
2022-11-20T01:04:27.922Z,0.00
2022-11-20T01:05:27.871Z,0.00
2022-11-20T01:06:27.882Z,0.00
2022-11-20T01:07:28.013Z,0.00
2022-11-20T01:08:27.886Z,0.00
2022-11-20T01:09:27.893Z,0.00
2022-11-20T01:10:27.839Z,0.00
2022-11-20T01:11:27.906Z,0.00
2022-11-20T01:12:27.864Z,0.00
2022-11-20T01:13:27.975Z,0.00
2022-11-20T01:14:27.891Z,0.00
2022-11-20T01:15:27.844Z,0.00
2022-11-20T01:16:27.814Z,0.00
2022-11-20T01:17:27.866Z,0.00
2022-11-20T01:18:27.876Z,0.00
2022-11-20T01:19:27.808Z,0.00
2022-11-20T01:20:27.779Z,0.00
2022-11-20T01:21:27.818Z,0.00
2022-11-20T01:22:27.821Z,0.00
2022-11-20T01:23:27.769Z,0.00
2022-11-20T01:24:27.826Z,0.00
2022-11-20T01:25:27.788Z,0.00
2022-11-20T01:26:27.763Z,0.00
2022-11-20T01:27:27.767Z,0.00
2022-11-20T01:28:27.765Z,0.00
2022-11-20T01:29:27.781Z,0.00
2022-11-20T01:30:27.754Z,0.00
2022-11-20T01:31:27.726Z,0.00
2022-11-20T01:32:27.719Z,0.00
2022-11-20T01:33:27.752Z,0.00
2022-11-20T01:34:27.714Z,0.00
2022-11-20T01:35:27.792Z,0.00
2022-11-20T01:36:27.692Z,0.00
2022-11-20T01:37:27.746Z,0.00
2022-11-20T01:38:27.729Z,0.00
2022-11-20T01:39:27.710Z,0.00
2022-11-20T01:40:27.716Z,0.00
2022-11-20T01:41:27.664Z,0.00
2022-11-20T01:42:27.672Z,0.00
2022-11-20T01:43:27.668Z,0.00
2022-11-20T01:44:28.698Z,0.00
2022-11-20T01:45:27.657Z,0.00
2022-11-20T01:46:27.665Z,0.00
2022-11-20T01:47:27.634Z,0.00
2022-11-20T01:48:27.648Z,0.00
2022-11-20T01:49:27.634Z,0.00
2022-11-20T01:50:27.623Z,0.00
2022-11-20T01:51:27.643Z,0.00
2022-11-20T01:52:27.599Z,0.00
2022-11-20T01:53:28.619Z,0.00
2022-11-20T01:54:27.575Z,0.00
2022-11-20T01:55:27.583Z,0.00
2022-11-20T01:56:27.592Z,0.00
2022-11-20T01:57:27.610Z,0.00
2022-11-20T01:58:27.577Z,0.00
2022-11-20T01:59:27.546Z,0.00
2022-11-20T02:00:27.560Z,0.00
2022-11-20T02:01:27.612Z,0.00
2022-11-20T02:02:27.629Z,0.00
2022-11-20T02:03:27.549Z,0.00
2022-11-20T02:04:27.559Z,0.00
2022-11-20T02:05:27.555Z,0.00
2022-11-20T02:06:27.525Z,0.00
2022-11-20T02:07:27.578Z,0.00
2022-11-20T02:08:27.630Z,0.00
2022-11-20T02:09:27.502Z,0.00
2022-11-20T02:10:27.488Z,0.00
2022-11-20T02:11:27.469Z,0.00
2022-11-20T02:12:27.475Z,0.00
2022-11-20T02:13:27.595Z,0.00
2022-11-20T02:14:27.463Z,0.00
2022-11-20T02:15:30.298Z,0.00
2022-11-20T02:16:27.459Z,0.00
2022-11-20T02:17:27.466Z,0.00
2022-11-20T02:18:27.460Z,0.00
2022-11-20T02:19:27.481Z,0.00
2022-11-20T02:20:27.470Z,0.00
2022-11-20T02:21:27.413Z,0.00
2022-11-20T02:22:28.196Z,0.00
2022-11-20T02:23:27.419Z,0.00
2022-11-20T02:24:27.468Z,0.00
2022-11-20T02:25:27.409Z,0.00
2022-11-20T02:26:27.446Z,0.00
2022-11-20T02:27:27.345Z,0.00
2022-11-20T02:28:27.373Z,0.00
2022-11-20T02:29:27.412Z,0.00
2022-11-20T02:30:27.379Z,0.00
2022-11-20T02:31:27.386Z,0.00
2022-11-20T02:32:27.366Z,0.00
2022-11-20T02:33:27.373Z,0.00
2022-11-20T02:34:27.324Z,0.00
2022-11-20T02:35:27.389Z,0.00
2022-11-20T02:36:27.323Z,0.00
2022-11-20T02:37:27.364Z,0.00
2022-11-20T02:38:27.322Z,0.00
2022-11-20T02:39:27.309Z,0.00
2022-11-20T02:40:27.279Z,0.00
2022-11-20T02:41:27.380Z,0.00
2022-11-20T02:42:27.274Z,0.00
2022-11-20T02:43:27.266Z,0.00
2022-11-20T02:44:27.272Z,0.00
2022-11-20T02:45:27.248Z,0.00
2022-11-20T02:46:27.266Z,0.00
2022-11-20T02:47:27.272Z,0.00
2022-11-20T02:48:30.120Z,0.00
2022-11-20T02:49:28.245Z,0.00
2022-11-20T02:50:27.207Z,0.00
2022-11-20T02:51:27.243Z,0.00
2022-11-20T02:52:27.335Z,0.00
2022-11-20T02:53:27.307Z,0.00
2022-11-20T02:54:27.246Z,0.00
2022-11-20T02:55:27.216Z,0.00
2022-11-20T02:56:27.205Z,0.00
2022-11-20T02:57:27.208Z,0.00
2022-11-20T02:58:27.205Z,0.00
2022-11-20T02:59:27.145Z,0.00
2022-11-20T03:00:27.257Z,0.00
2022-11-20T03:01:27.244Z,0.00
2022-11-20T03:02:27.180Z,0.00
2022-11-20T03:03:27.287Z,0.00
2022-11-20T03:04:27.153Z,0.00
2022-11-20T03:05:27.155Z,0.00
2022-11-20T03:06:27.107Z,0.00
2022-11-20T03:07:27.156Z,0.00
2022-11-20T03:08:27.221Z,0.00
2022-11-20T03:09:27.158Z,0.00
2022-11-20T03:10:27.138Z,0.00
2022-11-20T03:11:27.123Z,0.00
2022-11-20T03:12:27.091Z,0.00
2022-11-20T03:13:27.150Z,0.00
2022-11-20T03:14:27.120Z,0.00
2022-11-20T03:15:27.102Z,0.00
2022-11-20T03:16:27.100Z,0.00
2022-11-20T03:17:27.062Z,0.00
2022-11-20T03:18:27.092Z,0.00
2022-11-20T03:19:27.079Z,0.00
2022-11-20T03:20:27.060Z,0.00
2022-11-20T03:21:27.057Z,0.00
2022-11-20T03:22:27.091Z,0.00
2022-11-20T03:23:27.054Z,0.00
2022-11-20T03:24:26.998Z,0.00
2022-11-20T03:25:27.035Z,0.00
2022-11-20T03:26:27.018Z,0.00
2022-11-20T03:27:26.987Z,0.00
2022-11-20T03:28:27.033Z,0.00
2022-11-20T03:29:27.026Z,0.00
2022-11-20T03:30:30.580Z,0.00
2022-11-20T03:31:27.985Z,0.00
2022-11-20T03:32:27.019Z,0.00
2022-11-20T03:33:26.992Z,0.00
2022-11-20T03:34:26.923Z,0.00
2022-11-20T03:35:26.955Z,0.00
2022-11-20T03:36:26.959Z,0.00
2022-11-20T03:37:26.905Z,0.00
2022-11-20T03:38:26.933Z,0.00
2022-11-20T03:39:26.926Z,0.00
2022-11-20T03:40:26.945Z,0.00
2022-11-20T03:41:27.045Z,0.00
2022-11-20T03:42:26.917Z,0.00
2022-11-20T03:43:26.926Z,0.00
2022-11-20T03:44:26.903Z,0.00
2022-11-20T03:45:26.935Z,0.00
2022-11-20T03:46:26.867Z,0.00
2022-11-20T03:47:27.009Z,0.00
2022-11-20T03:48:26.880Z,0.00
2022-11-20T03:49:26.880Z,0.00
2022-11-20T03:50:26.858Z,0.00
2022-11-20T03:51:26.824Z,0.00
2022-11-20T03:52:26.946Z,0.00
2022-11-20T03:53:26.849Z,0.00
2022-11-20T03:54:26.837Z,0.00
2022-11-20T03:55:26.836Z,0.00
2022-11-20T03:56:26.807Z,0.00
2022-11-20T03:57:26.795Z,0.00
2022-11-20T03:58:26.847Z,0.00
2022-11-20T03:59:26.826Z,0.00
2022-11-20T04:00:26.779Z,0.00
2022-11-20T04:01:26.857Z,0.00
2022-11-20T04:02:26.836Z,0.00
2022-11-20T04:03:26.861Z,0.00
2022-11-20T04:04:26.779Z,0.00
2022-11-20T04:05:26.742Z,0.00
2022-11-20T04:06:26.784Z,0.00
2022-11-20T04:07:26.766Z,0.00
2022-11-20T04:08:26.743Z,0.00
2022-11-20T04:09:26.844Z,0.00
2022-11-20T04:10:26.750Z,0.00
2022-11-20T04:11:26.713Z,0.00
2022-11-20T04:12:26.715Z,0.00
2022-11-20T04:13:26.798Z,0.00
2022-11-20T04:14:26.818Z,0.00
2022-11-20T04:15:26.765Z,0.00
2022-11-20T04:16:26.752Z,0.00
2022-11-20T04:17:26.704Z,0.00
2022-11-20T04:18:26.751Z,0.00
2022-11-20T04:19:26.649Z,0.00
2022-11-20T04:20:26.665Z,0.00
2022-11-20T04:21:26.670Z,0.00
2022-11-20T04:22:26.663Z,0.00
2022-11-20T04:23:28.822Z,0.00
2022-11-20T04:24:27.651Z,0.00
2022-11-20T04:25:26.784Z,0.00
2022-11-20T04:26:26.650Z,0.00
2022-11-20T04:27:26.616Z,0.00
2022-11-20T04:28:26.612Z,0.00
2022-11-20T04:29:26.605Z,0.00
2022-11-20T04:30:26.607Z,0.00
2022-11-20T04:31:26.697Z,0.00
2022-11-20T04:32:26.591Z,0.00
2022-11-20T04:33:28.941Z,0.00
2022-11-20T04:34:26.645Z,0.00
2022-11-20T04:35:26.655Z,0.00
2022-11-20T04:36:26.679Z,0.00
2022-11-20T04:37:26.618Z,0.00
2022-11-20T04:38:26.560Z,0.00
2022-11-20T04:39:26.577Z,0.00
2022-11-20T04:40:26.570Z,0.00
2022-11-20T04:41:26.562Z,0.00
2022-11-20T04:42:26.823Z,0.00
2022-11-20T04:43:26.544Z,0.00
2022-11-20T04:44:26.534Z,0.00
2022-11-20T04:45:26.500Z,0.00
2022-11-20T04:46:26.497Z,0.00
2022-11-20T04:47:26.584Z,0.00
2022-11-20T04:48:26.498Z,0.00
2022-11-20T04:49:26.571Z,0.00
2022-11-20T04:50:26.487Z,0.00
2022-11-20T04:51:26.514Z,0.00
2022-11-20T04:52:26.488Z,0.00
2022-11-20T04:53:26.506Z,0.00
2022-11-20T04:54:26.468Z,0.00
2022-11-20T04:55:26.439Z,0.00
2022-11-20T04:56:26.457Z,0.00
2022-11-20T04:57:26.430Z,0.00
2022-11-20T04:58:26.598Z,0.00
2022-11-20T04:59:26.423Z,0.00
2022-11-20T05:00:26.441Z,0.00
2022-11-20T05:01:26.460Z,0.00
2022-11-20T05:02:26.434Z,0.00
2022-11-20T05:03:26.401Z,0.00
2022-11-20T05:04:26.496Z,0.00
2022-11-20T05:05:26.418Z,0.00
2022-11-20T05:06:26.369Z,0.00
2022-11-20T05:07:26.440Z,0.00
2022-11-20T05:08:26.357Z,0.00
2022-11-20T05:09:26.485Z,0.00
2022-11-20T05:10:26.383Z,0.00
2022-11-20T05:11:26.368Z,0.00
2022-11-20T05:12:26.354Z,0.00
2022-11-20T05:13:26.326Z,0.00
2022-11-20T05:14:26.351Z,0.00
2022-11-20T05:15:26.452Z,0.00
2022-11-20T05:16:26.304Z,0.00
2022-11-20T05:17:26.353Z,0.00
2022-11-20T05:18:26.304Z,0.00
2022-11-20T05:19:26.292Z,0.00
2022-11-20T05:20:26.341Z,0.00
2022-11-20T05:21:26.329Z,0.00
2022-11-20T05:22:26.275Z,0.00
2022-11-20T05:23:26.305Z,0.00
2022-11-20T05:24:26.278Z,0.00
2022-11-20T05:25:26.288Z,0.00
2022-11-20T05:26:26.303Z,0.00
2022-11-20T05:27:26.317Z,0.00
2022-11-20T05:28:26.284Z,0.00
2022-11-20T05:29:26.280Z,0.00
2022-11-20T05:30:26.273Z,0.00
2022-11-20T05:31:28.069Z,0.00
2022-11-20T05:32:27.228Z,0.00
2022-11-20T05:33:26.223Z,0.00
2022-11-20T05:34:26.217Z,0.00
2022-11-20T05:35:26.197Z,0.00
2022-11-20T05:36:26.250Z,0.00
2022-11-20T05:37:26.268Z,0.00
2022-11-20T05:38:26.208Z,0.00
2022-11-20T05:39:26.160Z,0.00
2022-11-20T05:40:26.165Z,0.00
2022-11-20T05:41:26.137Z,0.00
2022-11-20T05:42:26.211Z,0.00
2022-11-20T05:43:26.190Z,0.00
2022-11-20T05:44:26.189Z,0.00
2022-11-20T05:45:26.153Z,0.00
2022-11-20T05:46:28.710Z,0.00
2022-11-20T05:47:26.114Z,0.00
2022-11-20T05:48:26.235Z,0.00
2022-11-20T05:49:26.133Z,0.00
2022-11-20T05:50:26.123Z,0.00
2022-11-20T05:51:26.105Z,0.00
2022-11-20T05:52:26.082Z,0.00
2022-11-20T05:53:27.728Z,0.00
2022-11-20T05:54:27.086Z,0.00
2022-11-20T05:55:26.094Z,0.00
2022-11-20T05:56:26.060Z,0.00
2022-11-20T05:57:26.245Z,0.00
2022-11-20T05:58:26.050Z,0.00
2022-11-20T05:59:26.061Z,0.00
2022-11-20T06:00:26.068Z,0.00
2022-11-20T06:01:26.070Z,0.00
2022-11-20T06:02:26.135Z,0.00
2022-11-20T06:03:26.071Z,0.00
2022-11-20T06:04:26.175Z,0.00
2022-11-20T06:05:26.021Z,0.00
2022-11-20T06:06:25.988Z,0.00
2022-11-20T06:07:26.025Z,0.00
2022-11-20T06:08:26.035Z,0.00
2022-11-20T06:09:25.992Z,0.00
2022-11-20T06:10:26.013Z,0.00
2022-11-20T06:11:25.968Z,0.00
2022-11-20T06:12:25.968Z,0.00
2022-11-20T06:13:25.952Z,0.00
2022-11-20T06:14:25.963Z,0.00
2022-11-20T06:15:26.067Z,0.00
2022-11-20T06:16:25.967Z,0.00
2022-11-20T06:17:25.963Z,0.00
2022-11-20T06:18:25.936Z,0.00
2022-11-20T06:19:25.888Z,0.00
2022-11-20T06:20:25.950Z,0.00
2022-11-20T06:21:25.959Z,0.00
2022-11-20T06:22:25.908Z,0.00
2022-11-20T06:23:25.900Z,0.00
2022-11-20T06:24:25.871Z,0.00
2022-11-20T06:25:25.906Z,0.00
2022-11-20T06:26:25.908Z,0.00
2022-11-20T06:27:25.904Z,0.00
2022-11-20T06:28:25.868Z,0.00
2022-11-20T06:29:31.389Z,0.00
2022-11-20T06:30:27.894Z,0.00
2022-11-20T06:31:25.852Z,0.00
2022-11-20T06:32:25.965Z,0.00
2022-11-20T06:33:25.921Z,0.00
2022-11-20T06:34:25.838Z,0.00
2022-11-20T06:35:25.790Z,0.00
2022-11-20T06:36:25.881Z,0.00
2022-11-20T06:37:25.938Z,0.00
2022-11-20T06:38:25.843Z,0.00
2022-11-20T06:39:25.801Z,0.00
2022-11-20T06:40:25.916Z,0.00
2022-11-20T06:41:25.791Z,0.00
2022-11-20T06:42:25.798Z,0.00
2022-11-20T06:43:25.805Z,0.00
2022-11-20T06:44:25.782Z,0.00
2022-11-20T06:45:25.760Z,0.00
2022-11-20T06:46:25.785Z,0.00
2022-11-20T06:47:25.758Z,0.00
2022-11-20T06:48:25.816Z,0.00
2022-11-20T06:49:25.722Z,0.00
2022-11-20T06:50:25.771Z,0.00
2022-11-20T06:51:25.719Z,0.00
2022-11-20T06:52:25.701Z,0.00
2022-11-20T06:53:25.788Z,0.00
2022-11-20T06:54:25.735Z,0.00
2022-11-20T06:55:25.728Z,0.00
2022-11-20T06:56:25.719Z,0.00
2022-11-20T06:57:25.729Z,0.00
2022-11-20T06:58:25.696Z,0.00
2022-11-20T06:59:25.676Z,0.00
2022-11-20T07:00:25.690Z,0.00
2022-11-20T07:01:25.790Z,0.00
2022-11-20T07:02:25.680Z,0.00
2022-11-20T07:03:25.643Z,0.00
2022-11-20T07:04:25.630Z,5.62
2022-11-20T07:05:25.669Z,5.62
2022-11-20T07:06:25.616Z,5.62
2022-11-20T07:07:25.690Z,5.62
2022-11-20T07:08:25.669Z,5.62
2022-11-20T07:09:25.959Z,5.62
2022-11-20T07:10:25.596Z,5.62
2022-11-20T07:11:25.654Z,5.62
2022-11-20T07:12:25.651Z,5.62
2022-11-20T07:13:25.560Z,5.62
2022-11-20T07:14:25.620Z,5.62
2022-11-20T07:15:25.586Z,5.62
2022-11-20T07:16:25.704Z,11.25
2022-11-20T07:17:25.574Z,11.25
2022-11-20T07:18:25.550Z,11.25
2022-11-20T07:19:25.545Z,11.25
2022-11-20T07:20:25.543Z,11.25
2022-11-20T07:21:25.674Z,11.25
2022-11-20T07:22:25.542Z,11.25
2022-11-20T07:23:25.532Z,11.25
2022-11-20T07:24:25.504Z,11.25
2022-11-20T07:25:25.505Z,11.25
2022-11-20T07:26:25.527Z,11.25
2022-11-20T07:27:25.513Z,11.25
2022-11-20T07:28:25.507Z,11.25
2022-11-20T07:29:25.509Z,11.25
2022-11-20T07:30:25.496Z,11.25
2022-11-20T07:31:25.553Z,11.25
2022-11-20T07:32:25.496Z,11.25
2022-11-20T07:33:25.460Z,11.25
2022-11-20T07:34:25.468Z,11.25
2022-11-20T07:35:25.443Z,16.88
2022-11-20T07:36:25.426Z,16.88
2022-11-20T07:37:25.480Z,16.88
2022-11-20T07:38:25.458Z,16.88
2022-11-20T07:39:25.435Z,16.88
2022-11-20T07:40:25.424Z,16.88
2022-11-20T07:41:25.462Z,16.88
2022-11-20T07:42:25.414Z,16.88
2022-11-20T07:43:25.458Z,16.88
2022-11-20T07:44:25.407Z,16.88
2022-11-20T07:45:25.408Z,16.88
2022-11-20T07:46:25.406Z,16.88
2022-11-20T07:47:25.368Z,16.88
2022-11-20T07:48:25.446Z,22.50
2022-11-20T07:49:25.401Z,22.50
2022-11-20T07:50:25.341Z,22.50
2022-11-20T07:51:25.380Z,28.12
2022-11-20T07:52:25.345Z,28.12
2022-11-20T07:53:25.366Z,28.12
2022-11-20T07:54:25.448Z,28.12
2022-11-20T07:55:25.321Z,28.12
2022-11-20T07:56:25.337Z,33.75
2022-11-20T07:57:28.340Z,33.75
2022-11-20T07:58:25.308Z,39.38
2022-11-20T07:59:25.310Z,39.38
2022-11-20T08:00:25.373Z,33.75
2022-11-20T08:01:25.323Z,33.75
2022-11-20T08:02:25.303Z,39.38
2022-11-20T08:03:25.894Z,39.38
2022-11-20T08:04:25.289Z,39.38
2022-11-20T08:05:25.309Z,39.38
2022-11-20T08:06:25.270Z,39.38
2022-11-20T08:07:25.279Z,39.38
2022-11-20T08:08:25.271Z,39.38
2022-11-20T08:09:25.254Z,39.38
2022-11-20T08:10:25.276Z,39.38
2022-11-20T08:11:25.260Z,39.38
2022-11-20T08:12:25.233Z,45.00
2022-11-20T08:13:25.191Z,45.00
2022-11-20T08:14:25.230Z,45.00
2022-11-20T08:15:25.237Z,39.38
2022-11-20T08:16:25.285Z,45.00
2022-11-20T08:17:25.194Z,45.00
2022-11-20T08:18:32.954Z,45.00
2022-11-20T08:19:27.150Z,45.00
2022-11-20T08:20:25.176Z,45.00
2022-11-20T08:21:25.186Z,45.00
2022-11-20T08:22:25.182Z,50.62
2022-11-20T08:23:25.134Z,50.62
2022-11-20T08:24:25.181Z,50.62
2022-11-20T08:25:25.114Z,50.62
2022-11-20T08:26:25.131Z,50.62
2022-11-20T08:27:25.204Z,50.62
2022-11-20T08:28:26.128Z,50.62
2022-11-20T08:29:25.287Z,50.62
2022-11-20T08:30:25.132Z,56.25
2022-11-20T08:31:25.121Z,56.25
2022-11-20T08:32:25.099Z,61.88
2022-11-20T08:33:25.107Z,61.88
2022-11-20T08:34:25.090Z,61.88
2022-11-20T08:35:25.078Z,61.88
2022-11-20T08:36:25.050Z,61.88
2022-11-20T08:37:25.038Z,61.88
2022-11-20T08:38:25.096Z,61.88
2022-11-20T08:39:25.063Z,61.88
2022-11-20T08:40:25.135Z,61.88
2022-11-20T08:41:25.040Z,61.88
2022-11-20T08:42:25.018Z,61.88
2022-11-20T08:43:25.039Z,61.88
2022-11-20T08:44:25.048Z,61.88
2022-11-20T08:45:28.394Z,61.88
2022-11-20T08:46:25.982Z,61.88
2022-11-20T08:47:25.003Z,56.25
2022-11-20T08:48:24.988Z,56.25
2022-11-20T08:49:25.105Z,56.25
2022-11-20T08:50:25.000Z,56.25
2022-11-20T08:51:24.948Z,56.25
2022-11-20T08:52:24.960Z,61.88
2022-11-20T08:53:24.961Z,61.88
2022-11-20T08:54:24.968Z,61.88
2022-11-20T08:55:25.077Z,61.88
2022-11-20T08:56:24.955Z,61.88
2022-11-20T08:57:24.945Z,67.50
2022-11-20T08:58:24.952Z,67.50
2022-11-20T08:59:50.784Z,73.12
2022-11-20T09:00:27.083Z,73.12
2022-11-20T09:01:25.042Z,67.50
2022-11-20T09:02:24.921Z,61.88
2022-11-20T09:03:29.928Z,61.88
2022-11-20T09:04:26.887Z,67.50
2022-11-20T09:05:24.876Z,73.12
2022-11-20T09:06:24.909Z,73.12
2022-11-20T09:07:24.895Z,67.50
2022-11-20T09:08:24.847Z,61.88
2022-11-20T09:09:25.111Z,56.25
2022-11-20T09:10:25.252Z,56.25
2022-11-20T09:11:24.944Z,56.25
2022-11-20T09:12:24.847Z,56.25
2022-11-20T09:13:24.868Z,56.25
2022-11-20T09:14:24.835Z,56.25
2022-11-20T09:15:24.805Z,61.88
2022-11-20T09:16:24.802Z,67.50
2022-11-20T09:17:24.952Z,67.50
2022-11-20T09:18:24.782Z,67.50
2022-11-20T09:19:40.034Z,73.12
2022-11-20T09:20:26.831Z,73.12
2022-11-20T09:21:24.943Z,73.12
2022-11-20T09:22:24.811Z,73.12
2022-11-20T09:23:24.778Z,67.50
2022-11-20T09:24:57.248Z,67.50
2022-11-20T09:25:24.763Z,67.50
2022-11-20T09:26:24.758Z,73.12
2022-11-20T09:27:24.753Z,73.12
2022-11-20T09:28:25.772Z,78.75
2022-11-20T09:29:24.711Z,78.75
2022-11-20T09:30:24.750Z,78.75
2022-11-20T09:31:24.751Z,78.75
2022-11-20T09:32:24.714Z,73.12
2022-11-20T09:33:24.756Z,73.12
2022-11-20T09:34:24.704Z,73.12
2022-11-20T09:35:24.672Z,73.12
2022-11-20T09:36:24.719Z,73.12
2022-11-20T09:37:24.704Z,73.12
2022-11-20T09:38:24.693Z,73.12
2022-11-20T09:39:24.832Z,73.12
2022-11-20T09:40:24.660Z,78.75
2022-11-20T09:41:24.664Z,78.75
2022-11-20T09:42:24.645Z,84.38
2022-11-20T09:43:24.693Z,84.38
2022-11-20T09:44:24.771Z,84.38
2022-11-20T09:45:24.691Z,90.00
2022-11-20T09:46:24.679Z,84.38
2022-11-20T09:47:24.618Z,78.75
2022-11-20T09:48:24.631Z,67.50
2022-11-20T09:49:29.146Z,67.50
2022-11-20T09:50:25.739Z,67.50
2022-11-20T09:51:24.622Z,67.50
2022-11-20T09:52:24.603Z,73.12
2022-11-20T09:53:24.635Z,73.12
2022-11-20T09:54:24.587Z,78.75
2022-11-20T09:55:24.604Z,78.75
2022-11-20T09:56:24.608Z,78.75
2022-11-20T09:57:24.570Z,73.12
2022-11-20T09:58:24.583Z,73.12
2022-11-20T09:59:24.574Z,78.75
2022-11-20T10:00:24.561Z,84.38
2022-11-20T10:01:24.628Z,90.00
2022-11-20T10:02:24.527Z,84.38
2022-11-20T10:03:24.514Z,78.75
2022-11-20T10:04:24.551Z,73.12
2022-11-20T10:05:24.531Z,78.75
2022-11-20T10:06:24.473Z,84.38
2022-11-20T10:07:33.429Z,90.00
2022-11-20T10:08:26.509Z,101.25
2022-11-20T10:09:24.736Z,101.25
2022-11-20T10:10:24.484Z,101.25
2022-11-20T10:11:24.491Z,95.62
2022-11-20T10:12:24.523Z,101.25
2022-11-20T10:13:24.537Z,101.25
2022-11-20T10:14:24.452Z,106.88
2022-11-20T10:15:24.481Z,106.88
2022-11-20T10:16:24.502Z,106.88
2022-11-20T10:17:24.469Z,112.50
2022-11-20T10:18:24.453Z,118.12
2022-11-20T10:19:24.693Z,118.12
2022-11-20T10:20:24.413Z,123.75
2022-11-20T10:21:24.476Z,123.75
2022-11-20T10:22:24.454Z,135.00
2022-11-20T10:23:26.154Z,163.12
2022-11-20T10:24:25.456Z,202.50
2022-11-20T10:25:24.399Z,213.75
2022-11-20T10:26:24.432Z,213.75
2022-11-20T10:27:24.403Z,236.25
2022-11-20T10:28:24.420Z,219.38
2022-11-20T10:29:24.661Z,208.12
2022-11-20T10:30:24.385Z,185.62
2022-11-20T10:31:24.366Z,174.38
2022-11-20T10:32:24.391Z,174.38
2022-11-20T10:33:24.394Z,168.75
2022-11-20T10:34:24.356Z,151.88
2022-11-20T10:35:24.365Z,140.62
2022-11-20T10:36:24.368Z,135.00
2022-11-20T10:37:24.333Z,135.00
2022-11-20T10:38:24.337Z,140.62
2022-11-20T10:39:24.626Z,146.25
2022-11-20T10:40:24.367Z,140.62
2022-11-20T10:41:24.337Z,129.38
2022-11-20T10:42:24.348Z,118.12
2022-11-20T10:43:24.331Z,118.12
2022-11-20T10:44:24.351Z,118.12
2022-11-20T10:45:24.335Z,123.75
2022-11-20T10:46:24.304Z,118.12
2022-11-20T10:47:24.268Z,118.12
2022-11-20T10:48:24.306Z,112.50
2022-11-20T10:49:24.507Z,106.88
2022-11-20T10:50:24.339Z,106.88
2022-11-20T10:51:24.236Z,95.62
2022-11-20T10:52:24.288Z,90.00
2022-11-20T10:53:24.321Z,90.00
2022-11-20T10:54:24.231Z,90.00
2022-11-20T10:55:24.248Z,84.38
2022-11-20T10:56:24.278Z,78.75
2022-11-20T10:57:24.227Z,78.75
2022-11-20T10:58:24.253Z,84.38
2022-11-20T10:59:24.425Z,84.38
2022-11-20T11:00:24.226Z,84.38
2022-11-20T11:01:24.307Z,84.38
2022-11-20T11:02:24.239Z,84.38
2022-11-20T11:03:24.192Z,84.38
2022-11-20T11:04:24.193Z,84.38
2022-11-20T11:05:24.197Z,84.38
2022-11-20T11:06:24.171Z,84.38
2022-11-20T11:07:24.292Z,90.00
2022-11-20T11:08:24.165Z,95.62
2022-11-20T11:09:24.494Z,101.25
2022-11-20T11:10:24.139Z,112.50
2022-11-20T11:11:24.168Z,123.75
2022-11-20T11:12:24.120Z,123.75
2022-11-20T11:13:24.177Z,129.38
2022-11-20T11:14:24.116Z,129.38
2022-11-20T11:15:24.109Z,129.38
2022-11-20T11:16:24.125Z,129.38
2022-11-20T11:17:24.123Z,129.38
2022-11-20T11:18:24.147Z,135.00
2022-11-20T11:19:24.628Z,140.62
2022-11-20T11:20:24.112Z,140.62
2022-11-20T11:21:24.076Z,140.62
2022-11-20T11:22:24.101Z,140.62
2022-11-20T11:23:24.093Z,146.25
2022-11-20T11:24:41.771Z,151.88
2022-11-20T11:25:26.066Z,157.50
2022-11-20T11:26:24.087Z,163.12
2022-11-20T11:27:24.098Z,157.50
2022-11-20T11:28:24.030Z,151.88
2022-11-20T11:29:24.478Z,146.25
2022-11-20T11:30:24.034Z,135.00
2022-11-20T11:31:24.035Z,129.38
2022-11-20T11:32:24.050Z,135.00
2022-11-20T11:33:24.019Z,140.62
2022-11-20T11:34:23.997Z,151.88
2022-11-20T11:35:24.058Z,157.50
2022-11-20T11:36:24.002Z,157.50
2022-11-20T11:37:24.019Z,157.50
2022-11-20T11:38:23.973Z,151.88
2022-11-20T11:39:24.396Z,157.50
2022-11-20T11:40:25.314Z,180.00
2022-11-20T11:41:23.973Z,202.50
2022-11-20T11:42:23.956Z,241.88
2022-11-20T11:43:23.945Z,270.00
2022-11-20T11:44:23.935Z,270.00
2022-11-20T11:45:23.973Z,253.12
2022-11-20T11:46:23.980Z,225.00
2022-11-20T11:47:23.963Z,213.75
2022-11-20T11:48:23.942Z,213.75
2022-11-20T11:49:24.164Z,219.38
2022-11-20T11:50:23.956Z,225.00
2022-11-20T11:51:24.039Z,225.00
2022-11-20T11:52:23.941Z,219.38
2022-11-20T11:53:23.905Z,213.75
2022-11-20T11:54:23.934Z,208.12
2022-11-20T11:55:23.872Z,213.75
2022-11-20T11:56:23.880Z,213.75
2022-11-20T11:57:23.927Z,213.75
2022-11-20T11:58:23.921Z,196.88
2022-11-20T11:59:24.280Z,185.62
2022-11-20T12:00:23.880Z,180.00
2022-11-20T12:01:23.907Z,174.38
2022-11-20T12:02:23.900Z,174.38
2022-11-20T12:03:23.844Z,191.25
2022-11-20T12:04:23.870Z,202.50
2022-11-20T12:05:23.852Z,241.88
2022-11-20T12:06:23.868Z,241.88
2022-11-20T12:07:45.500Z,230.62
2022-11-20T12:08:25.912Z,225.00
2022-11-20T12:09:24.219Z,208.12
2022-11-20T12:10:23.840Z,180.00
2022-11-20T12:11:23.794Z,168.75
2022-11-20T12:12:23.837Z,168.75
2022-11-20T12:13:23.835Z,174.38
2022-11-20T12:14:23.812Z,168.75
2022-11-20T12:15:24.770Z,157.50
2022-11-20T12:16:23.765Z,157.50
2022-11-20T12:17:23.762Z,151.88
2022-11-20T12:18:24.048Z,151.88
2022-11-20T12:19:24.127Z,163.12
2022-11-20T12:20:23.771Z,168.75
2022-11-20T12:21:23.778Z,168.75
2022-11-20T12:22:23.734Z,174.38
2022-11-20T12:23:23.755Z,163.12
2022-11-20T12:24:23.781Z,157.50
2022-11-20T12:25:23.759Z,151.88
2022-11-20T12:26:23.748Z,157.50
2022-11-20T12:27:23.695Z,163.12
2022-11-20T12:28:23.755Z,163.12
2022-11-20T12:29:24.147Z,163.12
2022-11-20T12:30:23.718Z,151.88
2022-11-20T12:31:23.728Z,146.25
2022-11-20T12:32:23.705Z,146.25
2022-11-20T12:33:23.729Z,140.62
2022-11-20T12:34:23.694Z,129.38
2022-11-20T12:35:23.725Z,129.38
2022-11-20T12:36:23.724Z,140.62
2022-11-20T12:37:23.692Z,157.50
2022-11-20T12:38:23.685Z,163.12
2022-11-20T12:39:24.014Z,168.75
2022-11-20T12:40:23.680Z,157.50
2022-11-20T12:41:23.672Z,140.62
2022-11-20T12:42:23.687Z,135.00
2022-11-20T12:43:23.660Z,129.38
2022-11-20T12:44:23.638Z,118.12
2022-11-20T12:45:23.629Z,112.50
2022-11-20T12:46:23.603Z,106.88
2022-11-20T12:47:23.607Z,106.88
2022-11-20T12:48:23.757Z,101.25
2022-11-20T12:49:23.809Z,101.25
2022-11-20T12:50:24.603Z,101.25
2022-11-20T12:51:24.617Z,95.62
2022-11-20T12:52:23.637Z,95.62
2022-11-20T12:53:23.585Z,101.25
2022-11-20T12:54:23.609Z,101.25
2022-11-20T12:55:23.618Z,101.25
2022-11-20T12:56:23.546Z,101.25
2022-11-20T12:57:23.578Z,106.88
2022-11-20T12:58:23.619Z,112.50
2022-11-20T12:59:23.870Z,112.50
2022-11-20T13:00:23.574Z,112.50
2022-11-20T13:01:23.600Z,106.88